Scroll down
FLIGHT INFORMATION
American Airlines

AAL1756

At Arrival Gate

KMSP
 KPHX
DATE: 2021-11-14
GATE: E10
GATE DEPARTURE: 14:59
TAKEOFF: 15:06
DATE: 2021-11-14
GATE:  -
LANDING: 17:44
GATE ARRIVAL: 17:50
FLIGHT DATA
Crew: 
Speed: 
464 kts
Altitude: 
36,055 ft
Stage Length: 
1,107.8 nm
Block Time: 
2.8 hrs
Flight Time: 
2.6 hrs
Fuel Used: 
15,136 lb
Cleared Route: KMSP HUGIR MCONL ARREX SCHEP OTG ONL LBF PUB ALS RGINA PUMPS GUP KIRKM SLIDR TINIZ PAYSO EAGUL HOMRR BOHTX GEENO QUENY HINEY OBASE JAMIL RW08
TRACK DATA
50,000 ft 1,000 kts
AIRCRAFT INFO AND CUMULATIVE STATS
Aircraft Type: 
B738BW
Registration: 
SELCAL: 
CPBD
MSN/LN: 
33231 / 4563
Operator: 
Total Flights: 
24
Total Block Time: 
51.7 hrs
Total Flight Time: 
44.2 hrs
Total Fuel Used: 
287,169 lb
DATALINK LOG | Newest first | Current as of: 2022-09-28 23:03:01
LABEL SEQUENCE CONTENT Dn/Up
QD523617:50 7.7▼ Dn
QC463217:44▼ Dn
2U1349KPHX 141651Z 10005KT 10SM FEW250 22/00 A3015 RMK AO2 SLP197 T02220000▲ Up
2S1504KPHX▼ Dn
QB075915:06▼ Dn
QA015314:59 22.9▼ Dn
2U5054KMSP 141409Z 34015G19KT 10SM FEW019 OVC030 M01/M04 A2995 RMK AO2 T10111044▲ Up
2S5145KMSP▼ Dn
A34348CLEARED TO KPHX VIA SCHEP9 ONL LBF PUB ALS J102 GUP EAGUL6 . SQUAWK 3753.▲ Up
5U4202KPHX 141838Z 11004KT 10SM SKC 15/00 A3012▲ Up
2U4259KMSP 141409Z 34015G19KT 10SM FEW019 OVC030 M01/M04 A2995 RMK AO2 T10111044▲ Up
5S4345KPHX▼ Dn
2S4345KMSP▼ Dn
Q04237[LINK ACK]▲ Up
Q04237[LINK TEST]▼ Dn


AIRCRAFT HISTORY
FLIGHT DATE FLIGHT NO. ORIGIN DESTINATION CLEARED ROUTE BLOCK TIME FLIGHT TIME FUEL USED PILOT
2022-06-04AAL1174KPIT KORD KPIT BSV WEEVR NOLNN DAIFE WATSN HAUPO MKITA PRISE HULLS STYLE DWEEB CENAK RRUDA RW10C1.5 hrs1.1 hrs7,507 lbMichael Collier
2022-01-16AAL1221KORD KPIT KORD MOBLE ADIME OTENS ANEWA TAMDE ACO CUTTA JESEY YINZZ STOWI RW10L1.4 hrs1.1 hrs7,200 lbMichael Collier
2021-11-14AAL1109KMIA KORD KMIA KROCS RUSSS RMIRO AGERS PERTS AARPS MMART ENWOD SEAZY ONEWY ZERBO DUCEN OVENP FEMON VIYAP OLBEC ISUZO GURGE FISHO QUIWE BENBY DOOGE HAPKI TONIO OCASE HEVAN BONNT NYLEN VEECK BOONE HANNI CLUSO KAYTO PINKK MONKZ JORJO POSSM HAZIL RW28C2.9 hrs2.6 hrs16,062 lbGeorge
2021-11-14AAL1968KPHX KMIA KPHX SPRKY ECLPS KATMN BOXXR PHASE ELP FST KEMPL JCT SPURS PUFER CUZZZ IAH KAPAA PEKON LEV BLVNS BUNNZ BACCA CIGAR GAWKS BAGGS BETTL MATCY RAKLE HARAP FROGZ ENOLE HAKUL VEYGA SOFAS HOLEZ COTOL MACYS REELN WNNER BASHO RW26L4.3 hrs3.9 hrs25,993 lbGeorge
2021-11-14AAL1756KMSP KPHX KMSP HUGIR MCONL ARREX SCHEP OTG ONL LBF PUB ALS RGINA PUMPS GUP KIRKM SLIDR TINIZ PAYSO EAGUL HOMRR BOHTX GEENO QUENY HINEY OBASE JAMIL RW082.8 hrs2.6 hrs15,136 lbGeorge
2021-11-06AAL2381KORD KMSP KORD PMPKN NEATO DLLAN RONIC KAMMA BEERI ROBBY KBULL ZZING HENDR CMAAC KKILR HUGGI KRISP AFTYN JONZY GREAK DOLEE ZESTY RW12R1.3 hrs1 hrs7,171 lbGeorge
2021-05-31AAL2883KLAX KORD KLAX DOCKR KLIPR KEGGS COOPP ORCKA NNAVY BLAZN LAS BAWER LARVE EKR BFF ONL KATES FOD MYRRS SAAYY BENNR JBAGS BHAWK STNLE CUUPP CHMPN CLSBY FYTTE MOTRR COGSS MADII SOOLU JORJO MONKZ TONIE HAZIL RW28C4.2 hrs3.8 hrs23,476 lbGeorge
2021-05-31AAL861KAUS KLAX KAUS PAYDA MUCKY JCT KEMPL FST EWM DMN WOBUG SATRN BXK MESSI ESTWD MCQWN MDLER MNROE HLYWD BRUEN AVATR DAAAY WADUP NEILE SEAVU SHELL RW25R3.1 hrs2.8 hrs17,855 lbGeorge
2021-05-31AAL1079KORD KAUS KORD ACITO ADELL ARLYN FAM LIT WASKO CISAR BERKE ADUKE SKKIP LFK WEEED DOOEE WAILN WLEEE BITER ISHOV BASTO LUKKE XWING SSURF BEESO UTEEE RW18R2.5 hrs2.3 hrs17,411 lbGeorge
2021-05-30AAL1969KPHX KORD KPHX MOBIE JARPA RSK HBU BFF ONL FOD MYRRS SAAYY BENNR JBAGS BHAWK STNLE CUUPP CHMPN CLSBY FYTTE MOTRR COGSS MADII SOOLU KURKK VULCN HIMGO RRUDA RW10C3.2 hrs2.9 hrs17,710 lbGeorge
2021-05-30AAL767KLAX KPHX KLAX DOCKR WEILR SHAEF PEVEE HOLTZ DOTSS WIILD BLCKD CSTWY CNERY BLH SCOLE SPINK SNRRA SWOON HYDRR GEELA PUNNT TEICH TESLE FALGO CAGOR JAMIL RW081.2 hrs0.9 hrs6,673 lbGeorge
2021-04-11AAL1024KORD KLAX KORD OLINN OREOS OBENE OGALE DSM ZIRKL KD60Y DANDD DVC CORKR ESGEE DNERO SLLRS FLOJO SALYY GLESN ANJLL CAANN BOYEL CRCUS HUNDA RW25L4 hrs3.8 hrs21,459 lbGeorge
2021-03-27AAL4406KSDF KORD KSDF LEENE ONMEE CANBE STREP BONNT NYLEN VEECK BOONE HANNI CLUSO KAYTO PINKK MONKZ JORJO POSSM RRUDA RW10C1.1 hrs0.9 hrs6,933 lbGeorge
2021-01-31AAL3436KORD KSDF KORD DENNT DARCY DREGS DONVE RAMSE SUSZE UNCOD FRIZN HONOS PROUF HAUGN LEWSS AWLEE RW35L1.3 hrs0.9 hrs6,279 lbGeorge
2021-01-31AAL575KPHX KORD KPHX FORPE SJN CUBBA TAMEY KENTO KIRKE GOSSL MCI IRK LOAMY KEOKK DRAMS RYELY BFORD EZZRA TRIDE SHAIN RAGSS JUMPN NUNWS RRUDA RW10C3.1 hrs2.8 hrs16,370 lbGeorge
2021-01-31AAL1049KDFW KPHX KDFW ROOOO RUFFS KATZZ BRHMA CNX ZUN DOJOE SLIDR TINIZ PAYSO EAGUL HOMRR VNNOM ESDEE BASSL DERVL JAGAL RW262.7 hrs2.2 hrs14,171 lbGeorge
2021-01-30AAL3338KMSP KDFW KMSP JURNY RUMLE PEDLN ORSKY ONTIJ GOOLD SIMJI EYHUX TODDO OVR SLN MMB MDANO BELFR HHULL LETNN ZUBOV VKTRY ZMMAN PHAUP ZINGG RW17C2.6 hrs2.3 hrs13,517 lbGeorge
2021-01-30AAL130KORD KMSP KORD PMPKN NEATO DLLAN RONIC KAMMA BEERI ROBBY KBULL ZZING HENDR CMAAC KKILR HUGGI KRISP AFTYN JONZY GREAK DOLEE ZESTY RW12R1.3 hrs1 hrs7,544 lbGeorge
2021-01-01AAL1510KMEM KORD KMEM CHETO MUDHO GACET EMAXE HSTON JTEEE ODATE FTZ GROOV CASHN VINCA MAROC TRICH TRTLL HIHRY RINNO JORJO MONKZ RREGY CAKOS RW28L1.6 hrs1.2 hrs8,432 lbMichael Collier
2020-11-04AAL413KDFW KMEM KDFW FORCK ELD KMEM1.4 hrs1.2 hrs8,672 lbCharles Harris
2020-10-15AAL1572KTUL KDFW KTUL PEJAY AXXEE MMANN LKINS SEEVR BRDJE NUSSS YAHBT BOSSI RW17C1.1 hrs0.8 hrs5,852 lbMichael Collier
2020-10-13AAL1446KDFW KTUL 1.1 hrs0.7 hrs5,180 lbMichael Collier
2020-10-13AAL9501KDAL KDFW KDAL RAYMA RW35C0.4 hrs0.2 hrs1,999 lbMichael Collier
2020-08-27AAL2201KMEM KDAL KMEM CHETO MUDHO NIXOE PEPOC CHLDR ANSWA LIT DIRRK KDAL1.3 hrs1.2 hrs8,564 lbRoberto Stopnicki